Time;durP1;ratioP1;P1;durP2;ratioP2;P2;SDS_P1;SDS_P2;PMS_P1;PMS_P2;Temp;Humidity;BMP_temperature;BMP_pressure;BME280_temperature;BME280_humidity;BME280_pressure;Samples;Min_cycle;Max_cycle;Signal;HPM_P1;HPM_P2
2024/02/14 00:00:41;;;;;;;9.85;5.70;;;7.20;99.90;;;;;;4992903;28;20101;-46
2024/02/14 00:03:06;;;;;;;6.40;4.38;;;7.20;99.90;;;;;;4992257;28;20484;-44
2024/02/14 00:05:32;;;;;;;8.45;4.93;;;7.20;99.90;;;;;;4990048;28;20088;-40
2024/02/14 00:07:57;;;;;;;13.57;5.53;;;7.30;99.90;;;;;;4973632;28;20412;-46
2024/02/14 00:10:23;;;;;;;12.30;7.32;;;7.30;99.90;;;;;;4987817;28;20054;-44
2024/02/14 00:12:49;;;;;;;7.30;4.72;;;7.40;99.90;;;;;;4972976;28;20043;-41
2024/02/14 00:15:14;;;;;;;6.45;4.90;;;7.40;99.90;;;;;;4972641;28;20407;-41
2024/02/14 00:17:40;;;;;;;10.32;4.85;;;7.40;99.90;;;;;;4972880;28;20034;-43
2024/02/14 00:20:06;;;;;;;15.65;5.05;;;7.40;99.90;;;;;;4973334;28;20054;-45
2024/02/14 00:22:32;;;;;;;9.50;5.30;;;7.40;99.90;;;;;;5005550;28;20526;-39
2024/02/14 00:24:57;;;;;;;5.63;4.47;;;7.40;99.90;;;;;;4985726;28;20027;-43
2024/02/14 00:27:24;;;;;;;7.57;5.15;;;7.30;99.90;;;;;;4972303;28;20426;-41
2024/02/14 00:29:50;;;;;;;9.68;5.68;;;7.20;99.90;;;;;;4972305;28;20511;-44
2024/02/14 00:32:16;;;;;;;8.40;5.07;;;7.30;99.90;;;;;;4972453;28;20529;-43
2024/02/14 00:34:42;;;;;;;9.15;5.85;;;7.20;99.90;;;;;;4972873;28;20046;-42
2024/02/14 00:37:07;;;;;;;5.72;4.88;;;7.30;99.90;;;;;;4972827;28;20031;-42
2024/02/14 00:39:33;;;;;;;7.32;5.10;;;7.30;99.90;;;;;;4972737;28;20030;-43
2024/02/14 00:41:59;;;;;;;31.75;14.35;;;7.30;99.90;;;;;;4972017;28;20624;-47
2024/02/14 00:44:24;;;;;;;28.15;15.13;;;7.30;99.90;;;;;;4972683;28;20115;-43
2024/02/14 00:46:56;;;;;;;8.18;4.78;;;7.40;99.90;;;;;;4971750;28;20034;-43
2024/02/14 00:49:22;;;;;;;11.57;4.50;;;7.50;99.90;;;;;;4971821;28;20429;-43
2024/02/14 00:51:48;;;;;;;6.85;4.53;;;7.50;99.90;;;;;;4972431;28;20093;-42
2024/02/14 00:54:13;;;;;;;8.15;4.32;;;7.60;99.90;;;;;;4971669;28;20022;-42
2024/02/14 00:56:39;;;;;;;8.18;5.10;;;7.60;99.90;;;;;;4985660;28;20045;-41
2024/02/14 00:59:05;;;;;;;10.18;4.43;;;7.60;99.90;;;;;;4990341;28;20034;-39
2024/02/14 01:01:31;;;;;;;8.10;4.40;;;7.60;99.90;;;;;;4994266;28;20022;-41
2024/02/14 01:03:56;;;;;;;7.38;3.97;;;7.60;99.90;;;;;;4994638;28;20109;-40
2024/02/14 01:06:22;;;;;;;7.55;4.22;;;7.60;99.90;;;;;;5010283;28;20030;-41
2024/02/14 01:08:47;;;;;;;8.23;4.85;;;7.60;99.90;;;;;;4995331;28;20046;-42
2024/02/14 01:11:13;;;;;;;9.93;4.70;;;7.60;99.90;;;;;;4996202;28;20022;-41
2024/02/14 01:13:38;;;;;;;9.80;4.72;;;7.60;99.90;;;;;;4995653;28;20084;-40
2024/02/14 01:16:04;;;;;;;10.32;5.43;;;7.60;99.90;;;;;;4995759;28;20030;-41
2024/02/14 01:18:30;;;;;;;10.63;5.65;;;7.60;99.90;;;;;;4994232;28;20510;-44
2024/02/14 01:20:58;;;;;;;11.57;5.55;;;7.60;99.90;;;;;;4995914;28;20029;-41
2024/02/14 01:23:24;;;;;;;11.35;5.03;;;7.60;99.90;;;;;;4994732;28;20034;-42
2024/02/14 01:25:50;;;;;;;7.25;4.95;;;7.50;99.90;;;;;;4993561;28;20023;-45
2024/02/14 01:28:17;;;;;;;8.93;5.60;;;7.60;99.90;;;;;;4993720;28;20081;-39
2024/02/14 01:30:42;;;;;;;11.40;5.13;;;7.60;99.90;;;;;;4993693;28;20026;-42
2024/02/14 01:33:08;;;;;;;6.88;4.70;;;7.50;99.90;;;;;;4992375;28;20033;-41
2024/02/14 01:35:33;;;;;;;9.77;5.03;;;7.50;99.90;;;;;;4994017;28;20026;-42
2024/02/14 01:37:59;;;;;;;8.98;5.25;;;7.50;99.90;;;;;;4993542;28;20062;-42
2024/02/14 01:40:24;;;;;;;12.20;4.43;;;7.50;99.90;;;;;;4993441;28;20065;-37
2024/02/14 01:42:52;;;;;;;8.23;4.38;;;7.50;99.90;;;;;;4993406;28;20023;-41
2024/02/14 01:45:18;;;;;;;9.20;4.57;;;7.50;99.90;;;;;;4992894;28;20026;-41
2024/02/14 01:47:43;;;;;;;7.85;4.57;;;7.50;99.90;;;;;;4993237;28;20026;-43
2024/02/14 01:50:11;;;;;;;5.95;4.45;;;7.50;99.90;;;;;;4993302;28;20038;-42
2024/02/14 01:52:40;;;;;;;10.88;4.45;;;7.50;99.90;;;;;;4993417;28;20472;-40
2024/02/14 01:55:08;;;;;;;8.63;4.25;;;7.40;99.90;;;;;;4992760;28;20031;-41
2024/02/14 01:57:34;;;;;;;8.50;5.10;;;7.50;99.90;;;;;;4993041;28;20050;-40
2024/02/14 02:00:07;;;;;;;7.00;4.28;;;7.50;99.90;;;;;;4992658;28;20023;-41
2024/02/14 02:02:36;;;;;;;12.63;4.35;;;7.50;99.90;;;;;;4993242;28;20023;-42
2024/02/14 02:05:02;;;;;;;8.10;4.03;;;7.50;99.90;;;;;;4991456;28;20061;-44
2024/02/14 02:07:27;;;;;;;11.75;4.38;;;7.60;99.90;;;;;;4992958;28;20034;-40
2024/02/14 02:09:53;;;;;;;9.20;4.20;;;7.60;99.90;;;;;;4992558;28;20468;-41
2024/02/14 02:12:18;;;;;;;6.25;4.32;;;7.60;99.90;;;;;;4992793;28;20031;-41
2024/02/14 02:14:44;;;;;;;6.22;3.60;;;7.60;99.90;;;;;;4992470;28;20042;-42
2024/02/14 02:17:11;;;;;;;7.32;3.55;;;7.50;99.90;;;;;;4992684;28;20035;-40
2024/02/14 02:19:36;;;;;;;6.32;3.88;;;7.40;99.90;;;;;;4992818;28;20022;-40
2024/02/14 02:22:03;;;;;;;8.63;4.45;;;7.40;99.90;;;;;;4992036;28;20097;-43
2024/02/14 02:24:29;;;;;;;6.68;3.65;;;7.40;99.90;;;;;;4992264;28;20089;-40
2024/02/14 02:26:57;;;;;;;6.13;3.67;;;7.40;99.90;;;;;;4992377;28;20026;-40
2024/02/14 02:29:22;;;;;;;10.02;4.22;;;7.30;99.90;;;;;;4992720;28;20022;-40
2024/02/14 02:31:48;;;;;;;6.95;3.85;;;7.30;99.90;;;;;;4992464;28;20456;-40
2024/02/14 02:34:14;;;;;;;6.97;4.18;;;7.30;99.90;;;;;;4992449;28;20037;-40
2024/02/14 02:36:41;;;;;;;9.25;3.92;;;7.30;99.90;;;;;;5007438;28;20030;-41
2024/02/14 02:39:07;;;;;;;5.32;3.88;;;7.30;99.90;;;;;;4992359;28;20029;-40
2024/02/14 02:41:33;;;;;;;8.95;3.80;;;7.40;99.90;;;;;;4992120;28;20019;-45
2024/02/14 02:43:58;;;;;;;7.43;3.92;;;7.40;99.90;;;;;;4992180;28;20022;-43
2024/02/14 02:46:25;;;;;;;8.00;4.05;;;7.40;99.90;;;;;;4991888;28;20030;-40
2024/02/14 02:48:54;;;;;;;9.63;3.70;;;7.40;99.90;;;;;;4992247;28;20026;-41
2024/02/14 02:51:20;;;;;;;4.28;3.88;;;7.50;99.90;;;;;;4992267;28;20025;-41
2024/02/14 02:53:45;;;;;;;21.48;5.85;;;7.40;99.90;;;;;;4992178;28;20030;-42
2024/02/14 02:56:12;;;;;;;5.80;3.72;;;7.40;99.90;;;;;;4992327;28;20035;-42
2024/02/14 02:58:38;;;;;;;8.07;3.90;;;7.40;99.90;;;;;;4993256;28;20492;-44
2024/02/14 03:01:08;;;;;;;8.25;3.97;;;7.40;99.90;;;;;;4991836;28;20492;-45
2024/02/14 03:03:33;;;;;;;5.82;4.13;;;7.40;99.90;;;;;;4992018;28;20021;-42
2024/02/14 03:05:59;;;;;;;5.70;4.03;;;7.40;99.90;;;;;;4991780;28;20460;-40
2024/02/14 03:08:25;;;;;;;7.10;4.05;;;7.40;99.90;;;;;;4991861;28;20022;-42
2024/02/14 03:10:51;;;;;;;8.48;4.43;;;7.40;99.90;;;;;;4991883;28;20511;-43
2024/02/14 03:13:17;;;;;;;7.88;4.40;;;7.40;99.90;;;;;;4991674;28;20062;-37
2024/02/14 03:15:43;;;;;;;7.45;4.20;;;7.40;99.90;;;;;;4991818;28;20054;-44
2024/02/14 03:18:09;;;;;;;7.82;3.90;;;7.40;99.90;;;;;;4991825;28;20479;-41
2024/02/14 03:20:35;;;;;;;8.07;4.60;;;7.50;99.90;;;;;;4992074;28;20037;-40
2024/02/14 03:23:03;;;;;;;11.50;4.50;;;7.50;99.90;;;;;;4991876;28;20049;-42
2024/02/14 03:25:29;;;;;;;11.38;4.78;;;7.50;99.90;;;;;;4991534;28;20557;-42
2024/02/14 03:27:57;;;;;;;10.57;4.43;;;7.50;99.90;;;;;;4991877;28;20539;-42
2024/02/14 03:30:22;;;;;;;11.10;5.28;;;7.50;99.90;;;;;;4991960;28;20030;-41
2024/02/14 03:32:49;;;;;;;9.90;5.07;;;7.60;99.90;;;;;;4993649;28;20031;-41
2024/02/14 03:35:15;;;;;;;9.63;4.60;;;7.60;99.90;;;;;;4996537;28;20027;-45
2024/02/14 03:37:41;;;;;;;10.95;4.93;;;7.60;99.90;;;;;;4996070;28;20442;-41
2024/02/14 03:40:07;;;;;;;6.47;4.18;;;7.60;99.90;;;;;;4995634;28;20030;-45
2024/02/14 03:42:34;;;;;;;13.18;4.63;;;7.60;99.90;;;;;;4995655;28;20018;-43
2024/02/14 03:45:05;;;;;;;7.63;4.70;;;7.60;99.90;;;;;;4995584;28;20055;-43
2024/02/14 03:47:34;;;;;;;9.02;4.82;;;7.60;99.90;;;;;;4995693;28;20029;-40
2024/02/14 03:50:02;;;;;;;7.82;5.25;;;7.60;99.90;;;;;;4995349;28;20034;-40
2024/02/14 03:52:27;;;;;;;8.70;5.18;;;7.60;99.90;;;;;;4996759;28;20058;-44
2024/02/14 03:54:53;;;;;;;7.80;4.75;;;7.60;99.90;;;;;;4997523;28;20026;-40
2024/02/14 03:57:18;;;;;;;12.82;5.15;;;7.50;99.90;;;;;;4997358;28;20109;-40
2024/02/14 03:59:45;;;;;;;7.53;4.43;;;7.60;99.90;;;;;;4998010;28;20053;-40
2024/02/14 04:02:10;;;;;;;11.68;4.90;;;7.60;99.90;;;;;;4997085;28;20449;-41
2024/02/14 04:04:42;;;;;;;10.15;5.55;;;7.60;99.90;;;;;;4995679;28;20027;-41
2024/02/14 04:07:08;;;;;;;10.02;4.32;;;7.60;99.90;;;;;;4995394;28;20053;-41
2024/02/14 04:09:34;;;;;;;8.00;4.88;;;7.60;99.90;;;;;;4995389;28;20039;-40
2024/02/14 04:11:59;;;;;;;8.05;4.50;;;7.60;99.90;;;;;;4995228;28;20403;-40
2024/02/14 04:14:25;;;;;;;9.73;4.50;;;7.60;99.90;;;;;;4995093;28;20026;-40
2024/02/14 04:16:51;;;;;;;8.45;4.55;;;7.60;99.90;;;;;;4994460;28;20041;-44
2024/02/14 04:19:17;;;;;;;9.05;5.13;;;7.70;99.90;;;;;;4995073;28;20468;-40
2024/02/14 04:21:43;;;;;;;13.48;4.82;;;7.60;99.90;;;;;;4995004;28;20024;-43
2024/02/14 04:24:09;;;;;;;6.18;4.55;;;7.60;99.90;;;;;;4995339;28;20041;-43
2024/02/14 04:26:34;;;;;;;10.02;5.00;;;7.70;99.90;;;;;;4994631;28;20030;-41
2024/02/14 04:29:00;;;;;;;15.05;5.00;;;7.60;99.90;;;;;;4994829;28;20523;-44
2024/02/14 04:31:26;;;;;;;6.38;4.47;;;7.70;99.90;;;;;;5009862;28;20392;-40
2024/02/14 04:33:53;;;;;;;13.45;5.30;;;7.70;99.90;;;;;;4993404;28;20069;-41
2024/02/14 04:36:19;;;;;;;10.40;5.28;;;7.70;99.90;;;;;;4994553;28;20022;-41
2024/02/14 04:38:47;;;;;;;7.50;4.88;;;7.70;99.90;;;;;;5009895;28;20521;-44
2024/02/14 04:41:12;;;;;;;11.82;4.72;;;7.70;99.90;;;;;;4994596;28;20105;-40
2024/02/14 04:43:38;;;;;;;8.30;5.03;;;7.70;99.90;;;;;;4993814;28;20552;-43
2024/02/14 04:46:06;;;;;;;10.25;4.82;;;7.70;99.90;;;;;;4994013;28;20415;-41
2024/02/14 04:48:32;;;;;;;9.13;4.57;;;7.70;99.90;;;;;;4994461;28;20022;-41
2024/02/14 04:50:58;;;;;;;11.50;5.47;;;7.70;99.90;;;;;;4994019;28;20061;-41
2024/02/14 04:53:24;;;;;;;10.50;5.22;;;7.70;99.90;;;;;;4994115;28;20053;-42
2024/02/14 04:55:50;;;;;;;8.80;5.25;;;7.70;99.90;;;;;;4994089;28;20093;-42
2024/02/14 04:58:15;;;;;;;8.32;4.95;;;7.70;99.90;;;;;;4994071;28;20030;-39
2024/02/14 05:00:42;;;;;;;6.85;4.50;;;7.70;99.90;;;;;;4993864;28;20506;-40
2024/02/14 05:03:07;;;;;;;10.82;5.35;;;7.80;99.90;;;;;;4994005;28;20027;-42
2024/02/14 05:05:36;;;;;;;9.98;4.80;;;7.70;99.90;;;;;;5009234;28;20064;-41
2024/02/14 05:08:04;;;;;;;14.38;5.18;;;7.80;99.90;;;;;;4993986;28;20034;-40
2024/02/14 05:10:30;;;;;;;9.27;5.30;;;7.80;99.90;;;;;;4994573;28;20037;-41
2024/02/14 05:12:57;;;;;;;11.48;5.13;;;7.80;99.90;;;;;;4994668;28;20061;-41
2024/02/14 05:15:22;;;;;;;6.88;4.63;;;7.80;99.90;;;;;;4993697;28;20041;-40
2024/02/14 05:17:49;;;;;;;6.90;5.20;;;7.80;99.90;;;;;;4993923;28;20030;-40
2024/02/14 05:20:16;;;;;;;6.78;4.40;;;7.80;99.90;;;;;;4993934;28;20026;-41
2024/02/14 05:22:41;;;;;;;13.63;5.35;;;7.80;99.90;;;;;;4993442;28;20057;-41
2024/02/14 05:25:08;;;;;;;11.32;5.00;;;7.80;99.90;;;;;;4992033;28;20027;-45
2024/02/14 05:27:37;;;;;;;7.43;4.80;;;7.80;99.90;;;;;;4993519;28;20030;-41
2024/02/14 05:30:06;;;;;;;11.15;4.70;;;7.80;99.90;;;;;;4993687;28;20084;-41
2024/02/14 05:32:32;;;;;;;7.88;5.07;;;7.90;99.90;;;;;;4993489;28;20109;-41
2024/02/14 05:34:58;;;;;;;12.38;4.75;;;7.90;99.90;;;;;;4993524;28;20081;-41
2024/02/14 05:37:24;;;;;;;9.57;4.88;;;7.90;99.90;;;;;;4993366;28;20376;-40
2024/02/14 05:39:50;;;;;;;10.68;5.90;;;7.90;99.90;;;;;;4993448;28;20041;-40
2024/02/14 05:42:18;;;;;;;13.25;5.30;;;7.90;99.90;;;;;;4993681;28;20026;-42
2024/02/14 05:44:44;;;;;;;6.30;4.60;;;8.00;99.90;;;;;;4993418;28;20023;-41
2024/02/14 05:47:11;;;;;;;7.20;4.55;;;8.00;99.90;;;;;;4993323;28;20072;-39
2024/02/14 05:49:38;;;;;;;9.68;5.28;;;8.00;99.90;;;;;;4993397;28;20502;-41
2024/02/14 05:52:03;;;;;;;9.50;4.35;;;8.00;99.90;;;;;;4993053;28;20128;-40
2024/02/14 05:54:29;;;;;;;12.23;4.70;;;8.00;99.90;;;;;;4992884;28;20078;-38
2024/02/14 05:56:54;;;;;;;10.85;5.53;;;8.10;99.90;;;;;;4991623;28;20037;-38
2024/02/14 05:59:21;;;;;;;7.82;5.07;;;8.00;99.90;;;;;;4993585;28;20049;-47
2024/02/14 06:01:46;;;;;;;6.72;4.32;;;8.10;99.90;;;;;;4993295;28;20018;-43
2024/02/14 06:04:12;;;;;;;9.00;3.95;;;8.10;99.90;;;;;;4993606;28;20105;-41
2024/02/14 06:06:38;;;;;;;14.35;5.03;;;8.10;99.90;;;;;;4991561;28;20023;-42
2024/02/14 06:09:09;;;;;;;8.25;4.88;;;8.10;99.90;;;;;;4993027;28;20031;-41
2024/02/14 06:11:35;;;;;;;10.18;5.25;;;8.10;99.90;;;;;;4993035;28;20053;-40
2024/02/14 06:14:00;;;;;;;7.70;4.57;;;8.00;99.90;;;;;;5007986;28;20495;-43
2024/02/14 06:16:26;;;;;;;10.63;4.82;;;8.10;99.90;;;;;;4992733;28;20447;-43
2024/02/14 06:18:51;;;;;;;9.73;5.18;;;8.10;99.90;;;;;;4992644;28;20027;-42
2024/02/14 06:21:17;;;;;;;11.15;4.88;;;8.10;99.90;;;;;;4992804;28;20057;-41
2024/02/14 06:23:44;;;;;;;9.82;4.60;;;8.00;99.90;;;;;;4993149;28;20560;-42
2024/02/14 06:26:10;;;;;;;10.65;5.38;;;8.10;99.90;;;;;;4993028;28;20030;-41
2024/02/14 06:28:35;;;;;;;12.40;5.43;;;8.10;99.90;;;;;;4992464;28;20057;-47
2024/02/14 06:31:01;;;;;;;8.88;4.82;;;8.20;99.90;;;;;;4992075;28;20030;-41
2024/02/14 06:33:26;;;;;;;7.30;4.47;;;8.20;99.90;;;;;;4992468;28;20026;-41
2024/02/14 06:35:52;;;;;;;20.05;4.72;;;8.20;99.90;;;;;;5007212;28;20061;-42
2024/02/14 06:38:17;;;;;;;5.75;4.65;;;8.20;99.90;;;;;;4992347;28;20066;-41
2024/02/14 06:40:43;;;;;;;10.20;5.22;;;8.20;99.90;;;;;;4991150;28;20476;-39
2024/02/14 06:43:09;;;;;;;9.43;4.60;;;8.20;99.90;;;;;;4992279;28;20018;-41
2024/02/14 06:45:34;;;;;;;9.43;4.57;;;8.20;99.90;;;;;;4992270;28;20089;-40
2024/02/14 06:48:00;;;;;;;12.93;4.95;;;8.20;99.90;;;;;;4992200;28;20448;-42
2024/02/14 06:50:25;;;;;;;10.20;4.55;;;8.30;99.90;;;;;;4992272;28;20115;-45
2024/02/14 06:52:51;;;;;;;10.13;5.15;;;8.20;99.90;;;;;;4992125;28;20037;-41
2024/02/14 06:55:17;;;;;;;10.95;4.60;;;8.20;99.90;;;;;;4992502;28;20488;-41
2024/02/14 06:57:42;;;;;;;7.78;5.35;;;8.30;99.90;;;;;;4992250;28;20026;-43
2024/02/14 07:00:08;;;;;;;5.25;3.90;;;8.30;99.90;;;;;;4992332;28;20030;-43
2024/02/14 07:02:34;;;;;;;13.20;5.15;;;8.20;99.90;;;;;;4992217;28;20022;-41
2024/02/14 07:04:59;;;;;;;6.18;4.18;;;8.20;99.90;;;;;;5006560;28;20025;-41
2024/02/14 07:07:25;;;;;;;11.35;5.00;;;8.30;99.90;;;;;;4991773;28;20038;-41
2024/02/14 07:09:51;;;;;;;7.22;4.22;;;8.30;99.90;;;;;;4992166;28;20023;-41
2024/02/14 07:12:16;;;;;;;5.13;4.10;;;8.40;99.90;;;;;;4992102;28;20515;-44
2024/02/14 07:14:42;;;;;;;10.60;4.05;;;8.30;99.90;;;;;;4991804;28;20030;-42
2024/02/14 07:17:07;;;;;;;12.07;5.05;;;8.40;99.90;;;;;;4991917;28;20034;-41
2024/02/14 07:19:33;;;;;;;6.63;3.67;;;8.30;99.90;;;;;;4992011;28;20081;-44
2024/02/14 07:21:58;;;;;;;9.77;4.45;;;8.40;99.90;;;;;;4992472;28;20423;-41
2024/02/14 07:24:24;;;;;;;6.25;4.28;;;8.40;99.90;;;;;;4992217;28;20037;-39
2024/02/14 07:26:49;;;;;;;6.53;4.25;;;8.40;99.90;;;;;;4993027;28;20026;-41
2024/02/14 07:29:15;;;;;;;7.65;4.35;;;8.40;99.90;;;;;;4994331;28;20042;-41
2024/02/14 07:31:41;;;;;;;8.32;3.85;;;8.40;99.90;;;;;;4991763;28;20536;-42
2024/02/14 07:34:06;;;;;;;8.57;4.28;;;8.40;99.90;;;;;;4992038;28;20035;-41
2024/02/14 07:36:32;;;;;;;9.85;4.60;;;8.50;99.90;;;;;;4991487;28;20037;-41
2024/02/14 07:38:57;;;;;;;8.38;4.15;;;8.60;99.90;;;;;;4991615;28;20026;-44
2024/02/14 07:41:23;;;;;;;12.52;4.03;;;8.60;99.90;;;;;;4991523;28;20025;-41
2024/02/14 07:43:49;;;;;;;8.23;4.35;;;8.50;99.90;;;;;;4991573;28;20036;-42
2024/02/14 07:46:19;;;;;;;7.15;3.60;;;8.60;99.90;;;;;;5006354;28;20109;-41
2024/02/14 07:48:45;;;;;;;12.23;4.63;;;8.50;99.90;;;;;;4992065;28;20030;-41
2024/02/14 07:51:10;;;;;;;5.82;3.63;;;8.50;99.90;;;;;;4992008;28;20109;-43
2024/02/14 07:53:36;;;;;;;5.95;3.67;;;8.50;99.90;;;;;;4992037;28;20566;-42
2024/02/14 07:56:01;;;;;;;7.07;3.50;;;8.60;99.90;;;;;;4991175;28;20030;-41
2024/02/14 07:58:26;;;;;;;6.53;3.97;;;8.60;99.90;;;;;;4991404;28;20077;-42
2024/02/14 08:00:52;;;;;;;9.63;4.78;;;8.60;99.90;;;;;;4991764;28;20392;-44
2024/02/14 08:03:17;;;;;;;10.73;4.35;;;8.70;99.90;;;;;;4991656;28;20041;-38
2024/02/14 08:05:43;;;;;;;5.72;4.97;;;8.70;99.90;;;;;;5006580;28;20026;-43
2024/02/14 08:08:09;;;;;;;8.68;4.45;;;8.60;99.90;;;;;;5006708;28;20030;-46
2024/02/14 08:10:34;;;;;;;10.52;4.88;;;8.70;99.90;;;;;;4992081;28;20022;-43
2024/02/14 08:13:00;;;;;;;9.75;4.57;;;8.60;99.90;;;;;;4973868;28;20081;-41
2024/02/14 08:15:25;;;;;;;7.55;4.05;;;8.60;99.90;;;;;;5006270;28;20511;-43
2024/02/14 08:17:55;;;;;;;8.73;4.20;;;8.60;99.90;;;;;;4991580;28;20032;-40
2024/02/14 08:20:20;;;;;;;8.52;4.38;;;8.70;99.90;;;;;;4993851;28;20023;-44
2024/02/14 08:22:46;;;;;;;23.42;6.82;;;8.70;99.90;;;;;;5010533;28;20019;-41
2024/02/14 08:25:11;;;;;;;8.00;4.50;;;8.70;99.90;;;;;;4995085;28;20488;-44
2024/02/14 08:27:37;;;;;;;8.98;4.32;;;8.80;99.90;;;;;;4994900;28;20560;-41
2024/02/14 08:30:04;;;;;;;8.35;4.78;;;8.80;99.90;;;;;;4994953;28;20508;-41
2024/02/14 08:32:31;;;;;;;11.50;3.97;;;8.80;99.90;;;;;;4994754;28;20034;-41
2024/02/14 08:34:56;;;;;;;4.88;3.72;;;8.90;99.90;;;;;;4993848;28;20030;-42
2024/02/14 08:37:24;;;;;;;6.25;4.55;;;8.80;99.90;;;;;;4986003;28;20122;-43
2024/02/14 08:39:50;;;;;;;9.93;4.43;;;8.90;99.90;;;;;;4975025;28;20026;-44
2024/02/14 08:42:15;;;;;;;6.70;3.95;;;8.90;99.90;;;;;;4985229;28;20118;-42
2024/02/14 08:44:41;;;;;;;5.72;3.88;;;9.00;99.90;;;;;;4985080;28;20027;-38
2024/02/14 08:47:06;;;;;;;6.22;3.60;;;9.00;99.90;;;;;;4987874;28;20043;-42
2024/02/14 08:49:32;;;;;;;5.93;4.13;;;9.00;99.90;;;;;;4994483;28;20026;-43
2024/02/14 08:51:58;;;;;;;5.57;3.45;;;9.00;99.90;;;;;;4994592;28;20041;-41
2024/02/14 08:54:23;;;;;;;8.82;3.58;;;9.00;99.90;;;;;;4981921;28;20031;-43
2024/02/14 08:56:49;;;;;;;7.47;3.38;;;9.10;99.90;;;;;;4986176;28;20034;-42
2024/02/14 08:59:14;;;;;;;8.55;3.15;;;9.10;99.90;;;;;;4994015;28;20077;-41
2024/02/14 09:01:40;;;;;;;7.25;3.15;;;9.20;99.90;;;;;;4987490;28;20104;-39
2024/02/14 09:04:05;;;;;;;9.23;3.13;;;9.30;99.90;;;;;;4994198;28;20022;-40
2024/02/14 09:06:32;;;;;;;5.88;3.05;;;9.40;99.90;;;;;;4994128;28;20033;-45
2024/02/14 09:08:58;;;;;;;6.13;2.75;;;9.40;99.90;;;;;;4994033;28;20519;-42
2024/02/14 09:11:25;;;;;;;5.47;2.97;;;9.40;99.90;;;;;;5009052;28;20034;-41
2024/02/14 09:13:54;;;;;;;8.38;3.17;;;9.40;99.90;;;;;;4994166;28;20026;-42
2024/02/14 09:16:20;;;;;;;5.57;3.13;;;9.50;99.90;;;;;;4993782;28;20081;-42
2024/02/14 09:18:46;;;;;;;9.55;4.35;;;9.60;99.90;;;;;;4993780;28;20026;-41
2024/02/14 09:21:12;;;;;;;6.93;3.22;;;9.60;99.90;;;;;;4993649;28;20543;-39
2024/02/14 09:23:39;;;;;;;8.73;2.95;;;9.60;99.90;;;;;;4993751;28;20499;-42
2024/02/14 09:26:05;;;;;;;7.07;3.50;;;9.70;99.90;;;;;;4993808;28;20030;-40
2024/02/14 09:28:33;;;;;;;5.63;2.80;;;9.70;99.90;;;;;;5009213;28;20026;-40
2024/02/14 09:30:58;;;;;;;5.10;2.83;;;9.70;99.90;;;;;;4985748;28;20054;-42
2024/02/14 09:33:24;;;;;;;7.32;3.25;;;9.70;99.90;;;;;;4980573;28;20061;-43
2024/02/14 09:35:51;;;;;;;3.65;2.60;;;9.70;99.90;;;;;;4979121;28;20031;-43
2024/02/14 09:38:17;;;;;;;5.88;2.80;;;9.70;99.90;;;;;;4974362;28;20030;-41
2024/02/14 09:40:43;;;;;;;6.72;3.00;;;9.70;99.90;;;;;;4974981;28;20030;-41
2024/02/14 09:43:38;;;;;;;6.88;2.78;;;9.80;99.90;;;;;;4985092;28;20114;-39
2024/02/14 09:46:03;;;;;;;4.30;2.55;;;9.80;99.90;;;;;;4976456;28;20062;-43
2024/02/14 09:48:30;;;;;;;7.43;3.22;;;9.80;99.90;;;;;;4987557;28;20070;-41
2024/02/14 09:50:57;;;;;;;6.68;2.85;;;9.80;99.90;;;;;;5007497;28;20034;-40
2024/02/14 09:53:23;;;;;;;5.97;2.67;;;9.90;99.90;;;;;;4973717;28;20038;-45
2024/02/14 09:55:52;;;;;;;6.18;3.50;;;9.90;99.90;;;;;;4975506;28;20546;-44
2024/02/14 09:58:19;;;;;;;5.30;2.65;;;9.90;99.90;;;;;;4988700;28;20436;-42
2024/02/14 10:00:45;;;;;;;6.90;3.03;;;9.90;99.90;;;;;;4973884;28;20034;-42
2024/02/14 10:03:10;;;;;;;5.22;3.00;;;10.00;99.90;;;;;;4975063;28;20030;-42
2024/02/14 10:05:36;;;;;;;4.82;2.88;;;10.00;99.90;;;;;;4993560;28;20026;-41
2024/02/14 10:08:03;;;;;;;5.55;2.97;;;10.10;99.90;;;;;;4993429;28;20034;-41
2024/02/14 10:10:28;;;;;;;4.22;3.10;;;10.10;99.90;;;;;;4993507;28;20061;-42
2024/02/14 10:12:56;;;;;;;6.05;3.25;;;10.10;99.90;;;;;;4993674;28;20030;-44
2024/02/14 10:15:22;;;;;;;7.07;2.60;;;10.30;99.90;;;;;;4992584;28;20643;-42
2024/02/14 10:17:47;;;;;;;4.85;2.58;;;10.20;99.90;;;;;;4992555;28;20054;-43
2024/02/14 10:20:17;;;;;;;6.40;2.95;;;10.30;99.90;;;;;;4992769;28;20062;-43
2024/02/14 10:22:44;;;;;;;5.35;3.22;;;10.30;99.90;;;;;;4992985;28;20471;-42
2024/02/14 10:25:10;;;;;;;8.93;2.63;;;10.20;99.90;;;;;;4998666;28;20019;-41
2024/02/14 10:27:39;;;;;;;5.05;2.47;;;10.20;99.90;;;;;;4998038;28;20463;-47
2024/02/14 10:30:09;;;;;;;6.15;3.22;;;10.40;99.90;;;;;;4985391;28;20054;-45
2024/02/14 10:32:36;;;;;;;3.88;3.13;;;10.40;99.90;;;;;;4979597;28;20041;-43
2024/02/14 10:35:08;;;;;;;3.03;2.40;;;10.40;99.90;;;;;;4977539;28;20038;-43
2024/02/14 10:37:34;;;;;;;3.05;2.35;;;10.50;99.90;;;;;;4980779;28;20035;-44
2024/02/14 10:40:02;;;;;;;7.30;3.30;;;10.40;99.90;;;;;;4973850;28;20487;-42
2024/02/14 10:42:28;;;;;;;4.80;2.40;;;10.50;99.90;;;;;;4976950;28;20480;-44
2024/02/14 10:44:55;;;;;;;7.63;2.90;;;10.60;99.90;;;;;;4987015;28;20046;-43
2024/02/14 10:47:24;;;;;;;6.25;2.72;;;10.50;99.90;;;;;;4990579;28;20022;-43
2024/02/14 10:49:51;;;;;;;4.07;2.78;;;10.40;99.90;;;;;;4985214;28;20033;-45
2024/02/14 10:52:18;;;;;;;4.55;2.67;;;10.40;99.90;;;;;;4978902;28;20031;-45
2024/02/14 10:54:56;;;;;;;6.30;2.20;;;10.40;99.90;;;;;;4991673;28;20401;-41
2024/02/14 10:57:24;;;;;;;9.15;2.45;;;10.40;99.90;;;;;;4982559;28;20089;-42
2024/02/14 10:59:51;;;;;;;2.40;2.20;;;10.50;99.90;;;;;;4973884;28;20102;-42
2024/02/14 11:02:17;;;;;;;6.75;2.38;;;10.60;99.90;;;;;;4974041;28;20030;-44
2024/02/14 11:04:43;;;;;;;3.85;2.97;;;10.70;99.90;;;;;;4972381;28;20023;-46
2024/02/14 11:07:10;;;;;;;3.85;2.63;;;10.70;99.90;;;;;;4972407;28;20113;-44
2024/02/14 11:09:40;;;;;;;4.53;2.60;;;10.80;99.90;;;;;;4991669;28;20392;-44
2024/02/14 11:12:10;;;;;;;3.58;2.70;;;10.90;99.90;;;;;;4991897;28;20025;-42
2024/02/14 11:14:36;;;;;;;10.48;2.55;;;10.90;99.90;;;;;;4991353;28;20023;-42
2024/02/14 11:17:03;;;;;;;3.75;2.47;;;11.00;99.90;;;;;;4989655;28;20109;-45
2024/02/14 11:19:38;;;;;;;6.13;2.90;;;11.00;99.90;;;;;;4993886;28;20042;-43
2024/02/14 11:22:12;;;;;;;5.47;2.33;;;11.00;99.90;;;;;;4973374;28;20027;-42
2024/02/14 11:24:38;;;;;;;5.35;2.63;;;11.10;99.90;;;;;;4988082;28;20022;-47
2024/02/14 11:27:12;;;;;;;4.22;3.08;;;11.00;99.90;;;;;;4990381;28;20542;-45
2024/02/14 11:29:51;;;;;;;7.78;2.67;;;11.10;99.90;;;;;;4996280;28;20507;-41
2024/02/14 11:32:17;;;;;;;3.50;2.40;;;11.20;99.90;;;;;;4991093;28;20026;-41
2024/02/14 11:34:43;;;;;;;5.95;4.53;;;11.20;99.90;;;;;;4978637;28;20383;-43
2024/02/14 11:37:09;;;;;;;23.63;14.70;;;11.20;99.90;;;;;;5006301;28;20023;-44
2024/02/14 11:39:35;;;;;;;3.08;2.35;;;11.30;99.90;;;;;;4981821;28;20073;-41
2024/02/14 11:42:01;;;;;;;2.10;1.90;;;11.40;99.90;;;;;;4971985;28;20023;-41
2024/02/14 11:44:27;;;;;;;3.35;2.10;;;11.40;99.90;;;;;;4971963;28;20468;-45
2024/02/14 11:46:52;;;;;;;2.67;2.45;;;11.40;99.90;;;;;;4971853;28;20159;-38
2024/02/14 11:49:18;;;;;;;6.13;2.50;;;11.50;99.90;;;;;;4972212;28;20490;-44
2024/02/14 11:51:44;;;;;;;2.92;1.83;;;11.50;99.90;;;;;;4993065;28;20030;-44
2024/02/14 11:54:10;;;;;;;2.08;1.70;;;11.50;99.90;;;;;;4970091;28;20030;-42
2024/02/14 11:56:37;;;;;;;4.82;2.30;;;11.50;99.90;;;;;;4971756;28;20039;-45
2024/02/14 11:59:04;;;;;;;5.35;2.17;;;11.40;99.90;;;;;;4982963;28;20023;-44
2024/02/14 12:01:35;;;;;;;3.75;2.10;;;11.30;99.90;;;;;;4995022;28;20015;-43
2024/02/14 12:04:03;;;;;;;3.90;2.42;;;11.30;99.90;;;;;;4995043;28;20027;-42
2024/02/14 12:06:31;;;;;;;4.43;2.50;;;11.30;99.90;;;;;;4994623;28;20029;-42
2024/02/14 12:08:57;;;;;;;6.32;2.33;;;11.30;99.90;;;;;;4994990;28;20030;-44
2024/02/14 12:11:24;;;;;;;2.33;1.77;;;11.30;99.90;;;;;;4986341;28;20034;-42
2024/02/14 12:13:50;;;;;;;8.82;2.80;;;11.30;99.90;;;;;;4975640;28;20050;-41
2024/02/14 12:16:19;;;;;;;2.63;2.25;;;11.20;99.90;;;;;;4975412;28;20073;-46
2024/02/14 12:18:44;;;;;;;2.50;1.80;;;11.30;99.90;;;;;;4975441;28;20125;-43
2024/02/14 12:21:10;;;;;;;3.28;2.10;;;11.30;99.90;;;;;;4990815;28;20109;-43
2024/02/14 12:23:35;;;;;;;4.97;2.30;;;11.30;99.90;;;;;;4976146;28;20026;-43
2024/02/14 12:26:03;;;;;;;4.40;2.30;;;11.30;99.90;;;;;;4975064;28;20397;-42
2024/02/14 12:28:32;;;;;;;4.90;2.75;;;11.40;99.90;;;;;;4974956;28;20488;-44
2024/02/14 12:30:58;;;;;;;3.55;2.75;;;11.40;99.90;;;;;;4975243;28;20404;-42
2024/02/14 12:33:27;;;;;;;4.00;2.22;;;11.40;99.90;;;;;;4974162;28;20023;-43
2024/02/14 12:35:55;;;;;;;3.42;1.83;;;11.50;99.90;;;;;;4992985;28;20105;-44
2024/02/14 12:38:22;;;;;;;3.08;1.98;;;11.40;99.90;;;;;;4979875;28;20496;-45
2024/02/14 12:40:48;;;;;;;7.60;2.00;;;11.40;99.90;;;;;;4987110;28;20039;-41
2024/02/14 12:43:15;;;;;;;7.78;2.33;;;11.40;99.90;;;;;;4984636;28;20019;-42
2024/02/14 12:45:42;;;;;;;3.05;2.03;;;11.40;99.90;;;;;;4979079;28;20046;-45
2024/02/14 12:48:09;;;;;;;3.78;2.38;;;11.40;99.90;;;;;;4992726;28;20185;-43